createdAt,value
2018-10-07T00:01:11.625Z,80.51
2018-10-07T00:03:39.070Z,80.87
2018-10-07T00:06:06.547Z,80.44
2018-10-07T00:08:36.238Z,80.26
2018-10-07T00:11:03.792Z,80.32
2018-10-07T00:13:31.278Z,79.87
2018-10-07T00:15:58.739Z,80.29
2018-10-07T00:18:26.233Z,80.84
2018-10-07T00:20:53.651Z,81.42
2018-10-07T00:23:21.377Z,80.74
2018-10-07T00:25:48.809Z,80.00
2018-10-07T00:28:16.159Z,80.48
2018-10-07T00:30:43.643Z,80.37
2018-10-07T00:33:11.259Z,80.59
2018-10-07T00:38:31.503Z,80.56
2018-10-07T00:40:58.862Z,79.75
2018-10-07T00:43:26.184Z,80.69
2018-10-07T00:45:53.571Z,80.75
2018-10-07T00:48:20.897Z,81.62
2018-10-07T00:50:48.199Z,80.93
2018-10-07T00:53:15.602Z,80.70
2018-10-07T00:55:42.902Z,81.05
2018-10-07T00:58:10.441Z,81.67
2018-10-07T01:00:37.847Z,82.41
2018-10-07T01:03:05.328Z,81.54
2018-10-07T01:05:32.870Z,81.84
2018-10-07T01:08:00.228Z,81.27
2018-10-07T01:10:27.563Z,82.22
2018-10-07T01:12:54.992Z,82.59
2018-10-07T01:15:22.492Z,82.57
2018-10-07T01:17:49.836Z,82.05
2018-10-07T01:20:17.199Z,82.12
2018-10-07T01:22:44.491Z,82.99
2018-10-07T01:25:11.859Z,82.77
2018-10-07T01:27:39.167Z,83.34
2018-10-07T01:30:07.402Z,83.07
2018-10-07T01:32:34.691Z,82.99
2018-10-07T01:35:01.915Z,82.37
2018-10-07T01:37:29.162Z,83.41
2018-10-07T01:39:56.464Z,83.37
2018-10-07T01:42:23.733Z,83.84
2018-10-07T01:44:51.003Z,83.25
2018-10-07T01:47:18.242Z,82.81
2018-10-07T01:49:45.547Z,82.92
2018-10-07T01:52:12.828Z,83.03
2018-10-07T01:54:40.154Z,83.39
2018-10-07T01:57:07.493Z,83.02
2018-10-07T01:59:34.827Z,82.36
2018-10-07T02:02:02.891Z,82.88
2018-10-07T02:04:30.181Z,83.62
2018-10-07T02:06:57.517Z,83.16
2018-10-07T02:09:24.894Z,82.53
2018-10-07T02:11:52.164Z,83.08
2018-10-07T02:14:19.473Z,84.20
2018-10-07T02:16:46.827Z,83.45
2018-10-07T02:19:14.128Z,83.59
2018-10-07T02:21:41.556Z,82.75
2018-10-07T02:24:09.033Z,83.29
2018-10-07T02:26:36.474Z,83.53
2018-10-07T02:29:03.742Z,84.00
2018-10-07T02:31:31.034Z,84.12
2018-10-07T02:33:59.101Z,84.14
2018-10-07T02:36:26.448Z,84.15
2018-10-07T02:38:53.857Z,85.07
2018-10-07T02:41:21.197Z,84.75
2018-10-07T02:43:48.502Z,84.15
2018-10-07T02:46:15.699Z,84.77
2018-10-07T02:48:42.978Z,85.80
2018-10-07T02:51:10.795Z,85.07
2018-10-07T02:53:38.073Z,85.36
2018-10-07T02:56:05.702Z,84.69
2018-10-07T02:58:33.145Z,84.09
2018-10-07T03:01:00.432Z,85.65
2018-10-07T03:03:27.760Z,85.07
2018-10-07T03:05:55.076Z,84.06
2018-10-07T03:08:22.377Z,85.10
2018-10-07T03:10:49.665Z,84.48
2018-10-07T03:13:17.292Z,85.07
2018-10-07T03:15:44.568Z,85.76
2018-10-07T03:18:11.866Z,87.38
2018-10-07T03:20:39.139Z,86.89
2018-10-07T03:23:06.629Z,87.00
2018-10-07T03:25:33.957Z,86.15
2018-10-07T03:28:01.305Z,85.86
2018-10-07T03:30:28.624Z,85.83
2018-10-07T03:32:55.876Z,85.72
2018-10-07T03:35:23.122Z,86.17
2018-10-07T03:37:51.164Z,86.73
2018-10-07T03:40:18.420Z,85.42
2018-10-07T03:42:45.752Z,86.07
2018-10-07T03:45:13.095Z,86.14
2018-10-07T03:47:40.418Z,85.29
2018-10-07T03:50:07.696Z,84.55
2018-10-07T03:52:35.600Z,85.40
2018-10-07T03:55:02.852Z,85.37
2018-10-07T03:57:30.166Z,85.56
2018-10-07T03:59:57.569Z,85.53
2018-10-07T04:02:24.832Z,85.29
2018-10-07T04:04:52.319Z,86.37
2018-10-07T04:07:19.587Z,85.41
2018-10-07T04:09:46.891Z,85.58
2018-10-07T04:12:14.192Z,84.52
2018-10-07T04:14:41.532Z,86.94
2018-10-07T04:17:08.797Z,85.86
2018-10-07T04:19:36.139Z,86.68
2018-10-07T04:22:03.452Z,86.68
2018-10-07T04:24:32.157Z,86.07
2018-10-07T04:26:59.483Z,86.54
2018-10-07T04:29:27.122Z,85.69
2018-10-07T04:31:54.527Z,85.09
2018-10-07T04:34:21.903Z,85.54
2018-10-07T04:36:49.193Z,86.04
2018-10-07T04:39:16.602Z,86.32
2018-10-07T04:41:44.383Z,86.85
2018-10-07T04:44:11.692Z,86.85
2018-10-07T04:46:39.260Z,87.01
2018-10-07T04:49:07.476Z,85.36
2018-10-07T04:51:34.750Z,85.97
2018-10-07T04:54:02.508Z,86.36
2018-10-07T04:56:29.781Z,85.46
2018-10-07T04:58:57.091Z,85.95
2018-10-07T05:01:24.355Z,86.63
2018-10-07T05:03:51.742Z,88.10
2018-10-07T05:06:20.308Z,87.37
2018-10-07T05:08:47.850Z,86.99
2018-10-07T05:11:15.248Z,87.44
2018-10-07T05:13:47.490Z,88.10
2018-10-07T05:16:32.374Z,87.33
2018-10-07T05:19:00.211Z,86.82
2018-10-07T05:21:27.631Z,86.22
2018-10-07T05:23:55.393Z,85.69
2018-10-07T05:26:22.776Z,86.14
2018-10-07T05:28:50.080Z,86.02
2018-10-07T05:31:17.378Z,85.87
2018-10-07T05:33:44.819Z,84.65
2018-10-07T05:36:12.672Z,85.14
2018-10-07T05:38:40.027Z,85.92
2018-10-07T05:41:07.583Z,86.26
2018-10-07T05:43:34.892Z,85.70
2018-10-07T05:46:02.229Z,86.79
2018-10-07T05:48:29.527Z,86.68
2018-10-07T05:50:56.904Z,85.93
2018-10-07T05:53:24.238Z,86.36
2018-10-07T05:55:51.533Z,88.01
2018-10-07T05:58:18.929Z,87.59
2018-10-07T06:00:46.310Z,87.69
2018-10-07T06:03:18.469Z,87.48
2018-10-07T06:05:46.410Z,86.59
2018-10-07T06:08:15.338Z,86.64
2018-10-07T06:10:42.698Z,86.03
2018-10-07T06:13:10.054Z,86.11
2018-10-07T06:15:38.508Z,86.89
2018-10-07T06:18:06.082Z,86.94
2018-10-07T06:20:33.411Z,86.17
2018-10-07T06:23:00.839Z,86.28
2018-10-07T06:25:28.174Z,86.31
2018-10-07T06:27:55.927Z,85.88
2018-10-07T06:30:23.237Z,84.80
2018-10-07T06:32:50.834Z,84.19
2018-10-07T06:35:18.176Z,84.96
2018-10-07T06:37:45.521Z,84.24
2018-10-07T06:40:12.913Z,85.45
2018-10-07T06:42:40.258Z,86.09
2018-10-07T06:45:07.656Z,85.87
2018-10-07T06:47:34.968Z,85.66
2018-10-07T06:50:02.273Z,82.21
2018-10-07T06:52:29.634Z,77.65
2018-10-07T06:54:56.947Z,72.92
2018-10-07T06:57:24.224Z,70.55
2018-10-07T06:59:51.509Z,67.65
2018-10-07T07:02:18.890Z,65.35
2018-10-07T07:04:46.172Z,64.07
2018-10-07T07:07:13.473Z,61.12
2018-10-07T07:09:40.764Z,60.76
2018-10-07T07:12:08.065Z,58.79
2018-10-07T07:14:35.391Z,57.31
2018-10-07T07:17:02.701Z,54.82
2018-10-07T07:19:30.048Z,53.39
2018-10-07T07:21:57.303Z,53.67
2018-10-07T07:24:24.633Z,53.66
2018-10-07T07:26:53.396Z,53.28
2018-10-07T07:29:20.828Z,51.80
2018-10-07T07:31:48.200Z,50.50
2018-10-07T07:34:15.580Z,49.76
2018-10-07T07:36:42.892Z,49.74
2018-10-07T07:39:10.137Z,51.59
2018-10-07T07:41:37.523Z,50.76
2018-10-07T07:44:04.864Z,49.65
2018-10-07T07:46:32.136Z,47.89
2018-10-07T07:49:08.712Z,47.33
2018-10-07T07:51:36.455Z,46.70
2018-10-07T07:54:03.785Z,45.69
2018-10-07T07:56:31.113Z,44.95
2018-10-07T07:58:58.422Z,43.59
2018-10-07T08:01:25.889Z,43.60
2018-10-07T08:03:53.164Z,43.24
2018-10-07T08:06:20.486Z,42.32
2018-10-07T08:08:47.746Z,42.20
2018-10-07T08:11:15.021Z,40.98
2018-10-07T08:13:42.310Z,41.76
2018-10-07T08:16:09.605Z,43.14
2018-10-07T08:18:36.870Z,42.61
2018-10-07T08:21:04.162Z,41.56
2018-10-07T08:23:31.518Z,41.47
2018-10-07T08:25:58.767Z,42.01
2018-10-07T08:28:26.071Z,42.27
2018-10-07T08:30:53.362Z,40.60
2018-10-07T08:33:20.696Z,40.39
2018-10-07T08:35:48.045Z,41.73
2018-10-07T08:38:15.377Z,41.14
2018-10-07T08:40:42.652Z,39.62
2018-10-07T08:43:09.974Z,40.92
2018-10-07T08:45:37.298Z,42.01
2018-10-07T08:48:04.646Z,41.97
2018-10-07T08:50:31.914Z,40.19
2018-10-07T08:52:59.195Z,41.22
2018-10-07T08:55:26.576Z,40.65
2018-10-07T08:57:53.828Z,41.23
2018-10-07T09:00:21.117Z,39.66
2018-10-07T09:02:48.387Z,40.15
2018-10-07T09:05:15.650Z,39.80
2018-10-07T09:07:43.005Z,41.07
2018-10-07T09:10:10.288Z,39.67
2018-10-07T09:12:37.597Z,41.32
2018-10-07T09:15:04.997Z,40.15
2018-10-07T09:17:32.305Z,39.92
2018-10-07T09:19:59.539Z,41.15
2018-10-07T09:22:26.818Z,43.54
2018-10-07T09:24:54.370Z,42.97
2018-10-07T09:27:21.800Z,44.02
2018-10-07T09:29:49.138Z,45.15
2018-10-07T09:32:16.547Z,46.71
2018-10-07T09:34:43.852Z,49.03
2018-10-07T09:37:11.107Z,50.05
2018-10-07T09:39:38.424Z,50.41
2018-10-07T09:42:05.812Z,51.80
2018-10-07T09:44:33.134Z,50.90
2018-10-07T09:47:00.485Z,49.07
2018-10-07T09:49:27.786Z,45.09
2018-10-07T09:51:55.093Z,43.30
2018-10-07T09:54:22.372Z,41.86
2018-10-07T09:56:49.606Z,40.51
2018-10-07T09:59:16.889Z,39.02
2018-10-07T10:01:44.130Z,39.29
2018-10-07T10:04:11.559Z,39.59
2018-10-07T10:06:38.733Z,40.05
2018-10-07T10:09:07.160Z,38.21
2018-10-07T10:11:34.478Z,37.84
2018-10-07T10:14:01.786Z,39.14
2018-10-07T10:16:36.872Z,38.08
2018-10-07T10:19:05.283Z,37.20
2018-10-07T10:21:36.003Z,36.77
2018-10-07T10:24:40.928Z,37.22
2018-10-07T10:27:14.872Z,36.93
2018-10-07T10:29:47.867Z,37.63
2018-10-07T10:32:24.688Z,37.34
2018-10-07T10:35:03.900Z,36.76
2018-10-07T10:37:44.250Z,36.11
2018-10-07T10:40:25.423Z,37.07
2018-10-07T10:42:59.225Z,37.09
2018-10-07T10:45:37.951Z,37.32
2018-10-07T10:48:18.016Z,37.31
2018-10-07T10:50:50.327Z,37.34
2018-10-07T10:53:25.143Z,36.79
2018-10-07T10:55:58.918Z,36.68
2018-10-07T10:58:49.490Z,37.32
2018-10-07T11:01:56.259Z,38.37
2018-10-07T11:04:26.767Z,39.18
2018-10-07T11:07:03.646Z,38.80
2018-10-07T11:10:51.307Z,38.39
2018-10-07T11:13:26.746Z,39.40
2018-10-07T11:17:13.301Z,38.97
2018-10-07T11:19:48.131Z,40.75
2018-10-07T11:22:25.136Z,39.58
2018-10-07T11:27:06.544Z,40.93
2018-10-07T11:29:41.678Z,41.50
2018-10-07T11:32:52.408Z,40.13
2018-10-07T11:35:34.898Z,40.68
2018-10-07T11:38:14.394Z,41.15
2018-10-07T11:43:02.792Z,41.08
2018-10-07T11:45:35.850Z,40.58
2018-10-07T11:48:14.839Z,39.00
2018-10-07T11:50:58.640Z,39.51
2018-10-07T11:53:34.873Z,39.59
2018-10-07T11:56:02.166Z,39.34
2018-10-07T11:58:29.502Z,40.92
2018-10-07T12:07:58.571Z,41.16
2018-10-07T12:10:25.946Z,41.25
2018-10-07T12:12:53.214Z,40.50
2018-10-07T12:15:20.452Z,41.01
2018-10-07T12:17:47.762Z,41.25
2018-10-07T12:20:15.066Z,41.21
2018-10-07T12:22:42.390Z,38.92
2018-10-07T12:25:09.727Z,38.79
2018-10-07T12:27:36.987Z,39.77
2018-10-07T12:30:04.600Z,40.42
2018-10-07T12:32:31.865Z,39.46
2018-10-07T12:34:59.171Z,37.96
2018-10-07T12:37:26.575Z,38.55
2018-10-07T12:39:53.871Z,39.16
2018-10-07T12:42:21.280Z,39.27
2018-10-07T12:44:48.644Z,39.64
2018-10-07T12:47:15.960Z,40.08
2018-10-07T12:49:43.310Z,40.44
2018-10-07T12:52:10.614Z,40.99
2018-10-07T12:54:37.970Z,40.55
2018-10-07T12:57:05.300Z,39.38
2018-10-07T12:59:32.660Z,39.54
2018-10-07T13:01:59.975Z,40.05
2018-10-07T13:04:27.247Z,39.44
2018-10-07T13:06:54.581Z,40.13
2018-10-07T13:09:21.871Z,39.92
2018-10-07T13:11:49.356Z,39.07
2018-10-07T13:14:16.643Z,37.65
2018-10-07T13:16:44.032Z,38.03
2018-10-07T13:19:11.383Z,39.97
2018-10-07T13:21:38.583Z,40.58
2018-10-07T13:24:05.870Z,40.88
2018-10-07T13:26:33.207Z,41.16
2018-10-07T13:29:00.866Z,42.25
2018-10-07T13:31:28.195Z,40.92
2018-10-07T13:33:55.445Z,40.20
2018-10-07T13:36:22.790Z,40.54
2018-10-07T13:38:50.112Z,40.07
2018-10-07T13:41:17.387Z,39.94
2018-10-07T13:43:44.658Z,41.37
2018-10-07T13:46:11.927Z,40.89
2018-10-07T13:48:39.246Z,40.97
2018-10-07T13:51:06.662Z,42.53
2018-10-07T13:53:34.212Z,42.07
2018-10-07T13:56:01.537Z,43.13
2018-10-07T13:58:28.807Z,42.21
2018-10-07T14:00:56.057Z,42.70
2018-10-07T14:03:23.342Z,42.20
2018-10-07T14:05:50.630Z,42.38
2018-10-07T14:08:17.896Z,41.91
2018-10-07T14:10:45.219Z,41.27
2018-10-07T14:13:12.513Z,41.65
2018-10-07T14:15:39.864Z,42.61
2018-10-07T14:18:07.147Z,43.58
2018-10-07T14:20:34.454Z,43.05
2018-10-07T14:23:01.777Z,41.30
2018-10-07T14:25:29.027Z,40.39
2018-10-07T14:27:56.411Z,39.97
2018-10-07T14:30:23.773Z,40.31
2018-10-07T14:32:51.090Z,40.25
2018-10-07T14:35:18.418Z,39.80
2018-10-07T14:37:45.749Z,40.70
2018-10-07T14:40:13.152Z,41.22
2018-10-07T14:42:40.511Z,41.62
2018-10-07T14:45:07.966Z,42.65
2018-10-07T14:47:35.268Z,41.99
2018-10-07T14:50:02.616Z,42.77
2018-10-07T14:52:29.896Z,41.16
2018-10-07T14:54:57.253Z,42.06
2018-10-07T14:57:24.668Z,41.92
2018-10-07T14:59:51.980Z,41.54
2018-10-07T15:02:19.359Z,41.47
2018-10-07T15:04:46.607Z,41.61
2018-10-07T15:07:13.911Z,42.23
2018-10-07T15:09:41.504Z,42.30
2018-10-07T15:12:08.843Z,41.58
2018-10-07T15:14:36.119Z,41.81
2018-10-07T15:17:03.509Z,42.95
2018-10-07T15:19:30.861Z,42.26
2018-10-07T15:21:58.179Z,41.65
2018-10-07T15:24:25.465Z,41.24
2018-10-07T15:26:52.826Z,42.09
2018-10-07T15:29:20.164Z,42.05
2018-10-07T15:31:47.471Z,43.02
2018-10-07T15:34:14.707Z,43.96
2018-10-07T15:36:41.973Z,43.55
2018-10-07T15:39:09.230Z,43.24
2018-10-07T15:41:36.497Z,43.60
2018-10-07T15:44:03.903Z,45.41
2018-10-07T15:46:31.250Z,45.22
2018-10-07T15:48:58.573Z,46.73
2018-10-07T15:51:25.900Z,47.66
2018-10-07T15:53:53.163Z,48.05
2018-10-07T15:56:20.494Z,47.82
2018-10-07T15:58:47.762Z,49.74
2018-10-07T16:01:15.094Z,49.38
2018-10-07T16:03:42.413Z,49.22
2018-10-07T16:06:09.711Z,49.12
2018-10-07T16:08:36.980Z,50.90
2018-10-07T16:11:04.644Z,51.96
2018-10-07T16:13:31.865Z,52.03
2018-10-07T16:15:59.117Z,52.33
2018-10-07T16:18:27.171Z,52.99
2018-10-07T16:20:54.504Z,53.59
2018-10-07T16:23:21.804Z,54.06
2018-10-07T16:25:49.197Z,53.87
2018-10-07T16:28:16.464Z,54.63
2018-10-07T16:30:44.072Z,54.89
2018-10-07T16:33:11.367Z,55.27
2018-10-07T16:35:38.622Z,55.83
2018-10-07T16:38:06.042Z,56.09
2018-10-07T16:40:33.330Z,57.19
2018-10-07T16:43:00.600Z,57.15
2018-10-07T16:45:27.847Z,57.46
2018-10-07T16:47:55.168Z,59.20
2018-10-07T16:50:22.480Z,59.61
2018-10-07T16:52:49.847Z,60.04
2018-10-07T16:55:17.026Z,60.50
2018-10-07T16:57:44.274Z,61.77
2018-10-07T17:00:11.590Z,62.77
2018-10-07T17:02:38.968Z,63.01
2018-10-07T17:05:11.967Z,63.93
2018-10-07T17:07:39.247Z,63.46
2018-10-07T17:10:06.766Z,63.80
2018-10-07T17:12:34.206Z,63.92
2018-10-07T17:15:01.504Z,64.35
2018-10-07T17:17:28.864Z,64.88
2018-10-07T17:19:56.120Z,65.25
2018-10-07T17:22:23.380Z,66.13
2018-10-07T17:24:50.650Z,66.59
2018-10-07T17:27:18.015Z,66.85
2018-10-07T17:29:45.336Z,67.43
2018-10-07T17:32:12.562Z,68.50
2018-10-07T17:34:39.894Z,69.02
2018-10-07T17:37:07.158Z,69.44
2018-10-07T17:39:34.672Z,70.02
2018-10-07T17:42:01.949Z,70.33
2018-10-07T17:44:29.236Z,71.01
2018-10-07T17:46:56.539Z,71.46
2018-10-07T17:49:23.794Z,71.35
2018-10-07T17:51:51.109Z,71.93
2018-10-07T17:54:18.397Z,71.68
2018-10-07T17:56:45.709Z,72.45
2018-10-07T17:59:12.979Z,72.45
2018-10-07T18:01:40.249Z,71.62
2018-10-07T18:04:07.560Z,71.91
2018-10-07T18:06:34.858Z,72.42
2018-10-07T18:09:02.249Z,72.28
2018-10-07T18:11:29.551Z,72.76
2018-10-07T18:13:56.872Z,73.25
2018-10-07T18:16:24.241Z,72.36
2018-10-07T18:18:51.536Z,72.55
2018-10-07T18:21:19.008Z,72.59
2018-10-07T18:23:46.212Z,73.80
2018-10-07T18:26:13.556Z,73.53
2018-10-07T18:28:40.800Z,74.34
2018-10-07T18:31:08.133Z,74.01
2018-10-07T18:33:35.369Z,74.03
2018-10-07T18:36:03.927Z,74.29
2018-10-07T18:38:31.236Z,74.70
2018-10-07T18:40:58.492Z,75.18
2018-10-07T18:43:57.318Z,75.82
2018-10-07T18:46:24.605Z,75.44
2018-10-07T18:48:52.062Z,76.21
2018-10-07T18:51:19.237Z,75.47
2018-10-07T18:53:46.656Z,75.68
2018-10-07T18:56:14.064Z,75.85
2018-10-07T18:58:41.366Z,77.77
2018-10-07T19:01:08.740Z,77.43
2018-10-07T19:03:36.018Z,76.74
2018-10-07T19:06:03.256Z,77.42
2018-10-07T19:08:30.598Z,78.56
2018-10-07T19:10:57.904Z,77.95
2018-10-07T19:13:25.268Z,78.11
2018-10-07T19:15:52.496Z,78.73
2018-10-07T19:18:19.801Z,78.91
2018-10-07T19:20:47.119Z,80.26
2018-10-07T19:23:14.316Z,79.71
2018-10-07T19:25:41.693Z,80.36
2018-10-07T19:28:09.015Z,80.67
2018-10-07T19:30:36.334Z,81.08
2018-10-07T19:33:03.599Z,80.56
2018-10-07T19:35:30.851Z,81.17
2018-10-07T19:37:58.108Z,80.73
2018-10-07T19:40:25.356Z,80.99
2018-10-07T19:42:52.674Z,82.06
2018-10-07T19:45:19.982Z,82.09
2018-10-07T19:47:47.229Z,81.94
2018-10-07T19:50:14.548Z,81.85
2018-10-07T19:52:41.894Z,81.85
2018-10-07T19:55:09.137Z,80.98
2018-10-07T19:57:38.001Z,80.40
2018-10-07T20:00:05.230Z,80.21
2018-10-07T20:02:32.567Z,79.86
2018-10-07T20:04:59.804Z,79.74
2018-10-07T20:07:27.157Z,79.44
2018-10-07T20:09:54.467Z,79.63
2018-10-07T20:12:21.809Z,79.30
2018-10-07T20:14:49.086Z,80.24
2018-10-07T20:17:16.299Z,81.06
2018-10-07T20:19:43.616Z,80.68
2018-10-07T20:22:13.380Z,79.73
2018-10-07T20:24:40.688Z,79.55
2018-10-07T20:27:08.041Z,78.46
2018-10-07T20:29:35.318Z,77.94
2018-10-07T20:32:02.658Z,78.57
2018-10-07T20:34:29.927Z,79.25
2018-10-07T20:36:57.245Z,79.38
2018-10-07T20:39:24.457Z,79.40
2018-10-07T20:41:51.741Z,80.30
2018-10-07T20:44:19.076Z,80.78
2018-10-07T20:46:46.430Z,80.20
2018-10-07T20:49:13.684Z,80.15
2018-10-07T20:51:40.948Z,79.56
2018-10-07T20:54:08.203Z,80.02
2018-10-07T20:56:35.479Z,81.11
2018-10-07T20:59:02.726Z,82.54
2018-10-07T21:01:30.064Z,82.42
2018-10-07T21:03:57.361Z,82.44
2018-10-07T21:06:24.590Z,83.55
2018-10-07T21:08:51.970Z,83.48
2018-10-07T21:11:19.209Z,83.10
2018-10-07T21:13:46.501Z,83.93
2018-10-07T21:16:13.809Z,83.74
2018-10-07T21:18:41.071Z,84.80
2018-10-07T21:21:08.355Z,84.35
2018-10-07T21:23:35.656Z,84.89
2018-10-07T21:26:02.944Z,85.35
2018-10-07T21:28:30.276Z,84.46
2018-10-07T21:30:57.589Z,84.29
2018-10-07T21:33:24.865Z,84.04
2018-10-07T21:35:52.169Z,84.66
2018-10-07T21:38:19.502Z,84.75
2018-10-07T21:40:46.775Z,84.88
2018-10-07T21:43:14.097Z,82.97
2018-10-07T21:45:41.343Z,83.84
2018-10-07T21:48:08.677Z,83.72
2018-10-07T21:50:35.935Z,84.29
2018-10-07T21:53:03.196Z,84.08
2018-10-07T21:55:30.538Z,83.68
2018-10-07T21:57:57.807Z,82.63
2018-10-07T22:00:25.119Z,82.50
2018-10-07T22:02:52.428Z,82.38
2018-10-07T22:05:19.688Z,83.12
2018-10-07T22:07:46.991Z,83.22
2018-10-07T22:10:14.194Z,82.86
2018-10-07T22:12:41.544Z,82.84
2018-10-07T22:15:08.849Z,82.60
2018-10-07T22:17:36.197Z,81.83
2018-10-07T22:20:03.624Z,82.22
2018-10-07T22:22:30.974Z,82.17
2018-10-07T22:24:58.272Z,80.80
2018-10-07T22:27:25.581Z,81.29
2018-10-07T22:29:52.910Z,81.48
2018-10-07T22:32:20.170Z,80.66
2018-10-07T22:34:47.527Z,80.77
2018-10-07T22:37:14.776Z,80.87
2018-10-07T22:39:42.028Z,82.01
2018-10-07T22:42:09.344Z,82.07
2018-10-07T22:44:36.623Z,82.48
2018-10-07T22:47:03.938Z,83.08
2018-10-07T22:49:31.172Z,83.97
2018-10-07T22:51:58.487Z,83.51
2018-10-07T22:54:25.721Z,82.90
2018-10-07T22:56:53.114Z,81.99
2018-10-07T22:59:20.289Z,81.23
2018-10-07T23:01:47.537Z,80.60
2018-10-07T23:05:44.256Z,80.98
2018-10-07T23:08:11.655Z,82.05
2018-10-07T23:10:38.988Z,82.70
2018-10-07T23:13:06.280Z,83.18
2018-10-07T23:15:33.525Z,83.74
2018-10-07T23:18:00.965Z,84.37
2018-10-07T23:20:28.339Z,83.81
2018-10-07T23:22:55.669Z,83.43
2018-10-07T23:25:22.922Z,81.99
2018-10-07T23:27:50.216Z,81.58
2018-10-07T23:30:17.514Z,80.43
2018-10-07T23:32:44.931Z,82.34
2018-10-07T23:35:12.152Z,81.76
2018-10-07T23:37:39.479Z,82.06
2018-10-07T23:40:07.338Z,81.53
2018-10-07T23:42:34.571Z,81.69
2018-10-07T23:45:01.925Z,82.35
2018-10-07T23:47:29.252Z,82.70
2018-10-07T23:49:56.610Z,81.95
2018-10-07T23:52:23.944Z,80.95
2018-10-07T23:54:51.200Z,81.09
2018-10-07T23:57:18.577Z,82.44
2018-10-07T23:59:45.846Z,82.33
